sensor_id;sensor_type;location;lat;lon;timestamp;pressure;altitude;pressure_sealevel;temperature;humidity
77360;BME280;66426;51.454;7.266;2023-07-20T00:00:54;99925.47;;;16.52;nan
77360;BME280;66426;51.454;7.266;2023-07-20T00:01:54;99929.34;;;16.61;nan
77360;BME280;66426;51.454;7.266;2023-07-20T00:03:09;99924.28;;;16.68;nan
77360;BME280;66426;51.454;7.266;2023-07-20T00:04:11;99925.75;;;16.72;nan
77360;BME280;66426;51.454;7.266;2023-07-20T00:05:12;99918.84;;;16.68;nan
77360;BME280;66426;51.454;7.266;2023-07-20T00:06:12;99930.81;;;16.76;nan
77360;BME280;66426;51.454;7.266;2023-07-20T00:07:13;99926.84;;;16.47;nan
77360;BME280;66426;51.454;7.266;2023-07-20T00:08:14;99928.59;;;16.48;nan
77360;BME280;66426;51.454;7.266;2023-07-20T00:09:15;99929.94;;;16.53;nan
77360;BME280;66426;51.454;7.266;2023-07-20T00:10:15;99928.44;;;16.49;nan
77360;BME280;66426;51.454;7.266;2023-07-20T00:11:16;99920.78;;;16.43;nan
77360;BME280;66426;51.454;7.266;2023-07-20T00:12:17;99926.13;;;16.56;nan
77360;BME280;66426;51.454;7.266;2023-07-20T00:13:17;99922.53;;;16.55;nan
77360;BME280;66426;51.454;7.266;2023-07-20T00:14:19;99918.41;;;16.50;nan
77360;BME280;66426;51.454;7.266;2023-07-20T00:15:20;99928.44;;;16.49;nan
77360;BME280;66426;51.454;7.266;2023-07-20T00:16:21;99928.28;;;16.39;nan
77360;BME280;66426;51.454;7.266;2023-07-20T00:17:22;99929.69;;;16.45;nan
77360;BME280;66426;51.454;7.266;2023-07-20T00:18:22;99925.59;;;16.62;nan
77360;BME280;66426;51.454;7.266;2023-07-20T00:19:25;99925.72;;;16.49;nan
77360;BME280;66426;51.454;7.266;2023-07-20T00:20:25;99920.53;;;16.46;nan
77360;BME280;66426;51.454;7.266;2023-07-20T00:21:26;99923.59;;;16.42;nan
77360;BME280;66426;51.454;7.266;2023-07-20T00:22:27;99921.25;;;16.37;nan
77360;BME280;66426;51.454;7.266;2023-07-20T00:23:28;99922.63;;;16.43;nan
77360;BME280;66426;51.454;7.266;2023-07-20T00:24:28;99918.81;;;16.45;nan
77360;BME280;66426;51.454;7.266;2023-07-20T00:25:29;99911.00;;;16.52;nan
77360;BME280;66426;51.454;7.266;2023-07-20T00:26:30;99914.59;;;16.52;nan
77360;BME280;66426;51.454;7.266;2023-07-20T00:27:31;99914.97;;;16.59;nan
77360;BME280;66426;51.454;7.266;2023-07-20T00:28:31;99906.94;;;16.46;nan
77360;BME280;66426;51.454;7.266;2023-07-20T00:29:32;99913.47;;;16.44;nan
77360;BME280;66426;51.454;7.266;2023-07-20T00:30:33;99917.28;;;16.30;nan
77360;BME280;66426;51.454;7.266;2023-07-20T00:31:33;99908.16;;;16.42;nan
77360;BME280;66426;51.454;7.266;2023-07-20T00:32:37;99913.47;;;16.44;nan
77360;BME280;66426;51.454;7.266;2023-07-20T00:33:38;99911.00;;;16.41;nan
77360;BME280;66426;51.454;7.266;2023-07-20T00:34:40;99913.84;;;16.39;nan
77360;BME280;66426;51.454;7.266;2023-07-20T00:35:40;99907.31;;;16.53;nan
77360;BME280;66426;51.454;7.266;2023-07-20T00:36:41;99914.34;;;16.44;nan
77360;BME280;66426;51.454;7.266;2023-07-20T00:37:42;99914.09;;;16.47;nan
77360;BME280;66426;51.454;7.266;2023-07-20T00:38:43;99910.78;;;16.55;nan
77360;BME280;66426;51.454;7.266;2023-07-20T00:39:44;99910.53;;;16.58;nan
77360;BME280;66426;51.454;7.266;2023-07-20T00:40:44;99909.78;;;16.56;nan
77360;BME280;66426;51.454;7.266;2023-07-20T00:41:45;99910.16;;;16.51;nan
77360;BME280;66426;51.454;7.266;2023-07-20T00:42:46;99912.63;;;16.54;nan
77360;BME280;66426;51.454;7.266;2023-07-20T00:43:47;99914.97;;;16.48;nan
77360;BME280;66426;51.454;7.266;2023-07-20T00:44:47;99907.94;;;16.56;nan
77360;BME280;66426;51.454;7.266;2023-07-20T00:45:48;99905.59;;;16.63;nan
77360;BME280;66426;51.454;7.266;2023-07-20T00:46:49;99908.44;;;16.50;nan
77360;BME280;66426;51.454;7.266;2023-07-20T00:47:50;99898.78;;;16.46;nan
77360;BME280;66426;51.454;7.266;2023-07-20T00:48:50;99901.50;;;16.46;nan
77360;BME280;66426;51.454;7.266;2023-07-20T00:49:53;99905.72;;;16.50;nan
77360;BME280;66426;51.454;7.266;2023-07-20T00:50:54;99910.41;;;16.59;nan
77360;BME280;66426;51.454;7.266;2023-07-20T00:51:55;99907.31;;;16.64;nan
77360;BME280;66426;51.454;7.266;2023-07-20T00:52:56;99903.00;;;16.73;nan
77360;BME280;66426;51.454;7.266;2023-07-20T00:53:57;99903.50;;;16.67;nan
77360;BME280;66426;51.454;7.266;2023-07-20T00:54:58;99902.50;;;16.68;nan
77360;BME280;66426;51.454;7.266;2023-07-20T00:55:59;99909.94;;;16.66;nan
77360;BME280;66426;51.454;7.266;2023-07-20T00:57:00;99907.06;;;16.56;nan
77360;BME280;66426;51.454;7.266;2023-07-20T00:58:01;99906.22;;;16.67;nan
77360;BME280;66426;51.454;7.266;2023-07-20T00:59:02;99912.75;;;16.53;nan
77360;BME280;66426;51.454;7.266;2023-07-20T01:00:03;99906.22;;;16.55;nan
77360;BME280;66426;51.454;7.266;2023-07-20T01:01:04;99910.41;;;16.59;nan
77360;BME280;66426;51.454;7.266;2023-07-20T01:02:05;99917.94;;;16.56;nan
77360;BME280;66426;51.454;7.266;2023-07-20T01:03:06;99910.53;;;16.58;nan
77360;BME280;66426;51.454;7.266;2023-07-20T01:04:06;99914.69;;;16.39;nan
77360;BME280;66426;51.454;7.266;2023-07-20T01:05:09;99908.41;;;16.39;nan
77360;BME280;66426;51.454;7.266;2023-07-20T01:06:12;99911.75;;;16.54;nan
77360;BME280;66426;51.454;7.266;2023-07-20T01:07:17;99913.88;;;16.50;nan
77360;BME280;66426;51.454;7.266;2023-07-20T01:08:24;99898.78;;;16.46;nan
77360;BME280;66426;51.454;7.266;2023-07-20T01:09:34;99900.75;;;16.33;nan
77360;BME280;66426;51.454;7.266;2023-07-20T01:10:39;99901.38;;;16.48;nan
77360;BME280;66426;51.454;7.266;2023-07-20T01:11:43;99904.34;;;16.56;nan
77360;BME280;66426;51.454;7.266;2023-07-20T01:12:48;99902.50;;;16.56;nan
77360;BME280;66426;51.454;7.266;2023-07-20T01:13:51;99903.34;;;16.57;nan
77360;BME280;66426;51.454;7.266;2023-07-20T01:14:52;99907.19;;;16.54;nan
77360;BME280;66426;51.454;7.266;2023-07-20T01:15:56;99900.00;;;16.31;nan
77360;BME280;66426;51.454;7.266;2023-07-20T01:16:56;99906.41;;;16.30;nan
77360;BME280;66426;51.454;7.266;2023-07-20T01:17:57;99903.09;;;16.37;nan
77360;BME280;66426;51.454;7.266;2023-07-20T01:18:58;99903.22;;;16.47;nan
77360;BME280;66426;51.454;7.266;2023-07-20T01:19:59;99903.09;;;16.49;nan
77360;BME280;66426;51.454;7.266;2023-07-20T01:21:02;99902.22;;;16.26;nan
77360;BME280;66426;51.454;7.266;2023-07-20T01:22:07;99917.81;;;16.35;nan
77360;BME280;66426;51.454;7.266;2023-07-20T01:23:18;99905.81;;;16.37;nan
77360;BME280;66426;51.454;7.266;2023-07-20T01:25:45;99903.81;;;16.39;nan
77360;BME280;66426;51.454;7.266;2023-07-20T01:27:00;99905.22;;;16.45;nan
77360;BME280;66426;51.454;7.266;2023-07-20T01:29:42;99905.03;;;16.24;nan
77360;BME280;66426;51.454;7.266;2023-07-20T01:30:55;99894.41;;;16.32;nan
77360;BME280;66426;51.454;7.266;2023-07-20T01:31:57;99899.84;;;16.32;nan
77360;BME280;66426;51.454;7.266;2023-07-20T01:32:59;99896.78;;;16.37;nan
77360;BME280;66426;51.454;7.266;2023-07-20T01:34:01;99891.47;;;16.47;nan
77360;BME280;66426;51.454;7.266;2023-07-20T01:35:03;99890.72;;;16.45;nan
77360;BME280;66426;51.454;7.266;2023-07-20T01:36:06;99886.66;;;16.39;nan
77360;BME280;66426;51.454;7.266;2023-07-20T01:37:07;99885.53;;;16.30;nan
77360;BME280;66426;51.454;7.266;2023-07-20T01:38:09;99887.75;;;16.36;nan
77360;BME280;66426;51.454;7.266;2023-07-20T01:39:10;99883.22;;;16.48;nan
77360;BME280;66426;51.454;7.266;2023-07-20T01:40:11;99893.09;;;16.38;nan
77360;BME280;66426;51.454;7.266;2023-07-20T01:41:14;99897.25;;;16.20;nan
77360;BME280;66426;51.454;7.266;2023-07-20T01:42:15;99890.19;;;16.06;nan
77360;BME280;66426;51.454;7.266;2023-07-20T01:43:15;99897.13;;;16.21;nan
77360;BME280;66426;51.454;7.266;2023-07-20T01:44:16;99892.44;;;16.23;nan
77360;BME280;66426;51.454;7.266;2023-07-20T01:45:17;99891.81;;;16.20;nan
77360;BME280;66426;51.454;7.266;2023-07-20T01:46:18;99897.72;;;16.13;nan
77360;BME280;66426;51.454;7.266;2023-07-20T01:47:20;99894.00;;;16.03;nan
77360;BME280;66426;51.454;7.266;2023-07-20T01:48:21;99892.16;;;16.04;nan
77360;BME280;66426;51.454;7.266;2023-07-20T01:49:22;99893.25;;;16.01;nan
77360;BME280;66426;51.454;7.266;2023-07-20T01:50:22;99892.53;;;16.10;nan
77360;BME280;66426;51.454;7.266;2023-07-20T01:51:23;99897.25;;;16.20;nan
77360;BME280;66426;51.454;7.266;2023-07-20T01:52:24;99892.31;;;16.25;nan
77360;BME280;66426;51.454;7.266;2023-07-20T01:53:25;99902.81;;;16.18;nan
77360;BME280;66426;51.454;7.266;2023-07-20T01:54:26;99897.47;;;16.05;nan
77360;BME280;66426;51.454;7.266;2023-07-20T01:55:26;99896.72;;;16.14;nan
77360;BME280;66426;51.454;7.266;2023-07-20T01:56:27;99898.09;;;16.09;nan
77360;BME280;66426;51.454;7.266;2023-07-20T01:57:28;99897.22;;;16.08;nan
77360;BME280;66426;51.454;7.266;2023-07-20T01:58:28;99901.00;;;15.94;nan
77360;BME280;66426;51.454;7.266;2023-07-20T01:59:29;99888.91;;;15.99;nan
77360;BME280;66426;51.454;7.266;2023-07-20T02:00:30;99893.00;;;16.04;nan
77360;BME280;66426;51.454;7.266;2023-07-20T02:01:30;99884.09;;;16.02;nan
77360;BME280;66426;51.454;7.266;2023-07-20T02:02:33;99879.91;;;15.98;nan
77360;BME280;66426;51.454;7.266;2023-07-20T02:03:33;99879.16;;;15.96;nan
77360;BME280;66426;51.454;7.266;2023-07-20T02:04:34;99881.38;;;16.02;nan
77360;BME280;66426;51.454;7.266;2023-07-20T02:05:35;99876.84;;;16.03;nan
77360;BME280;66426;51.454;7.266;2023-07-20T02:06:35;99881.81;;;15.85;nan
77360;BME280;66426;51.454;7.266;2023-07-20T02:07:36;99879.91;;;15.98;nan
77360;BME280;66426;51.454;7.266;2023-07-20T02:08:37;99876.44;;;16.07;nan
77360;BME280;66426;51.454;7.266;2023-07-20T02:09:37;99879.91;;;16.09;nan
77360;BME280;66426;51.454;7.266;2023-07-20T02:10:38;99883.38;;;16.11;nan
77360;BME280;66426;51.454;7.266;2023-07-20T02:11:39;99881.66;;;16.10;nan
77360;BME280;66426;51.454;7.266;2023-07-20T02:12:39;99880.66;;;16.11;nan
77360;BME280;66426;51.454;7.266;2023-07-20T02:13:40;99877.84;;;16.13;nan
77360;BME280;66426;51.454;7.266;2023-07-20T02:14:41;99878.97;;;16.10;nan
77360;BME280;66426;51.454;7.266;2023-07-20T02:15:42;99881.63;;;15.99;nan
77360;BME280;66426;51.454;7.266;2023-07-20T02:16:43;99884.25;;;16.12;nan
77360;BME280;66426;51.454;7.266;2023-07-20T02:17:45;99877.19;;;16.09;nan
77360;BME280;66426;51.454;7.266;2023-07-20T02:18:45;99873.63;;;16.09;nan
77360;BME280;66426;51.454;7.266;2023-07-20T02:19:46;99875.84;;;16.04;nan
77360;BME280;66426;51.454;7.266;2023-07-20T02:20:52;99876.34;;;15.98;nan
77360;BME280;66426;51.454;7.266;2023-07-20T02:21:52;99870.16;;;16.07;nan
77360;BME280;66426;51.454;7.266;2023-07-20T02:22:53;99878.31;;;16.07;nan
77360;BME280;66426;51.454;7.266;2023-07-20T02:23:54;99875.72;;;16.05;nan
77360;BME280;66426;51.454;7.266;2023-07-20T02:24:55;99882.47;;;16.00;nan
77360;BME280;66426;51.454;7.266;2023-07-20T02:25:55;99881.22;;;15.92;nan
77360;BME280;66426;51.454;7.266;2023-07-20T02:26:56;99892.47;;;15.88;nan
77360;BME280;66426;51.454;7.266;2023-07-20T02:27:57;99889.50;;;15.91;nan
77360;BME280;66426;51.454;7.266;2023-07-20T02:28:59;99895.81;;;15.91;nan
77360;BME280;66426;51.454;7.266;2023-07-20T02:29:59;99888.88;;;15.87;nan
77360;BME280;66426;51.454;7.266;2023-07-20T02:31:00;99886.47;;;15.71;nan
77360;BME280;66426;51.454;7.266;2023-07-20T02:32:01;99886.63;;;15.81;nan
77360;BME280;66426;51.454;7.266;2023-07-20T02:33:03;99887.34;;;15.72;nan
77360;BME280;66426;51.454;7.266;2023-07-20T02:34:05;99885.25;;;15.76;nan
77360;BME280;66426;51.454;7.266;2023-07-20T02:35:06;99887.38;;;15.83;nan
77360;BME280;66426;51.454;7.266;2023-07-20T02:36:07;99887.13;;;15.75;nan
77360;BME280;66426;51.454;7.266;2023-07-20T02:37:08;99886.97;;;15.77;nan
77360;BME280;66426;51.454;7.266;2023-07-20T02:38:09;99891.66;;;15.74;nan
77360;BME280;66426;51.454;7.266;2023-07-20T02:39:10;99887.34;;;15.72;nan
77360;BME280;66426;51.454;7.266;2023-07-20T02:40:11;99889.69;;;15.77;nan
77360;BME280;66426;51.454;7.266;2023-07-20T02:41:12;99887.84;;;15.77;nan
77360;BME280;66426;51.454;7.266;2023-07-20T02:42:13;99889.97;;;15.85;nan
77360;BME280;66426;51.454;7.266;2023-07-20T02:43:14;99891.31;;;15.79;nan
77360;BME280;66426;51.454;7.266;2023-07-20T02:44:15;99887.97;;;15.76;nan
77360;BME280;66426;51.454;7.266;2023-07-20T02:45:16;99896.47;;;15.71;nan
77360;BME280;66426;51.454;7.266;2023-07-20T02:46:17;99892.91;;;15.70;nan
77360;BME280;66426;51.454;7.266;2023-07-20T02:47:17;99894.38;;;15.74;nan
77360;BME280;66426;51.454;7.266;2023-07-20T02:48:19;99897.41;;;15.83;nan
77360;BME280;66426;51.454;7.266;2023-07-20T02:49:20;99891.03;;;15.71;nan
77360;BME280;66426;51.454;7.266;2023-07-20T02:50:21;99897.78;;;15.65;nan
77360;BME280;66426;51.454;7.266;2023-07-20T02:51:22;99899.00;;;15.61;nan
77360;BME280;66426;51.454;7.266;2023-07-20T02:52:22;99902.19;;;15.55;nan
77360;BME280;66426;51.454;7.266;2023-07-20T02:53:24;99902.47;;;15.63;nan
77360;BME280;66426;51.454;7.266;2023-07-20T02:54:25;99911.38;;;15.65;nan
77360;BME280;66426;51.454;7.266;2023-07-20T02:55:26;99915.38;;;15.72;nan
77360;BME280;66426;51.454;7.266;2023-07-20T02:56:26;99915.63;;;15.57;nan
77360;BME280;66426;51.454;7.266;2023-07-20T02:57:27;99912.69;;;15.36;nan
77360;BME280;66426;51.454;7.266;2023-07-20T02:58:28;99904.34;;;15.50;nan
77360;BME280;66426;51.454;7.266;2023-07-20T02:59:28;99909.00;;;15.61;nan
77360;BME280;66426;51.454;7.266;2023-07-20T03:00:30;99905.88;;;15.54;nan
77360;BME280;66426;51.454;7.266;2023-07-20T03:01:30;99907.81;;;15.52;nan
77360;BME280;66426;51.454;7.266;2023-07-20T03:02:31;99910.00;;;15.47;nan
77360;BME280;66426;51.454;7.266;2023-07-20T03:03:33;99914.88;;;15.54;nan
77360;BME280;66426;51.454;7.266;2023-07-20T03:04:39;99918.09;;;15.60;nan
77360;BME280;66426;51.454;7.266;2023-07-20T03:05:40;99907.81;;;15.52;nan
77360;BME280;66426;51.454;7.266;2023-07-20T03:06:41;99918.09;;;15.60;nan
77360;BME280;66426;51.454;7.266;2023-07-20T03:07:42;99917.31;;;15.46;nan
77360;BME280;66426;51.454;7.266;2023-07-20T03:08:43;99907.63;;;15.42;nan
77360;BME280;66426;51.454;7.266;2023-07-20T03:09:46;99911.44;;;15.52;nan
77360;BME280;66426;51.454;7.266;2023-07-20T03:10:46;99911.94;;;15.58;nan
77360;BME280;66426;51.454;7.266;2023-07-20T03:11:47;99909.94;;;15.72;nan
77360;BME280;66426;51.454;7.266;2023-07-20T03:12:48;99909.06;;;15.72;nan
77360;BME280;66426;51.454;7.266;2023-07-20T03:13:49;99914.81;;;15.91;nan
77360;BME280;66426;51.454;7.266;2023-07-20T03:14:50;99908.66;;;15.65;nan
77360;BME280;66426;51.454;7.266;2023-07-20T03:15:51;99900.50;;;15.65;nan
77360;BME280;66426;51.454;7.266;2023-07-20T03:16:52;99913.63;;;15.71;nan
77360;BME280;66426;51.454;7.266;2023-07-20T03:17:53;99913.72;;;15.46;nan
77360;BME280;66426;51.454;7.266;2023-07-20T03:18:55;99912.50;;;15.50;nan
77360;BME280;66426;51.454;7.266;2023-07-20T03:19:55;99910.25;;;15.44;nan
77360;BME280;66426;51.454;7.266;2023-07-20T03:20:56;99906.09;;;15.51;nan
77360;BME280;66426;51.454;7.266;2023-07-20T03:21:57;99914.59;;;15.46;nan
77360;BME280;66426;51.454;7.266;2023-07-20T03:22:58;99912.56;;;15.61;nan
77360;BME280;66426;51.454;7.266;2023-07-20T03:23:58;99914.00;;;15.54;nan
77360;BME280;66426;51.454;7.266;2023-07-20T03:24:59;99909.22;;;15.58;nan
77360;BME280;66426;51.454;7.266;2023-07-20T03:26:00;99912.47;;;15.63;nan
77360;BME280;66426;51.454;7.266;2023-07-20T03:27:01;99913.03;;;15.55;nan
77360;BME280;66426;51.454;7.266;2023-07-20T03:28:01;99919.28;;;15.68;nan
77360;BME280;66426;51.454;7.266;2023-07-20T03:29:04;99916.03;;;15.63;nan
77360;BME280;66426;51.454;7.266;2023-07-20T03:30:06;99911.06;;;15.57;nan
77360;BME280;66426;51.454;7.266;2023-07-20T03:31:07;99911.72;;;15.61;nan
77360;BME280;66426;51.454;7.266;2023-07-20T03:32:08;99912.66;;;15.72;nan
77360;BME280;66426;51.454;7.266;2023-07-20T03:33:09;99913.31;;;15.63;nan
77360;BME280;66426;51.454;7.266;2023-07-20T03:34:12;99909.56;;;15.53;nan
77360;BME280;66426;51.454;7.266;2023-07-20T03:35:12;99914.75;;;15.32;nan
77360;BME280;66426;51.454;7.266;2023-07-20T03:36:13;99925.03;;;15.40;nan
77360;BME280;66426;51.454;7.266;2023-07-20T03:37:14;99913.03;;;15.55;nan
77360;BME280;66426;51.454;7.266;2023-07-20T03:38:14;99915.91;;;15.65;nan
77360;BME280;66426;51.454;7.266;2023-07-20T03:39:15;99921.63;;;15.49;nan
77360;BME280;66426;51.454;7.266;2023-07-20T03:40:16;99923.34;;;15.50;nan
77360;BME280;66426;51.454;7.266;2023-07-20T03:41:17;99919.16;;;15.46;nan
77360;BME280;66426;51.454;7.266;2023-07-20T03:42:17;99923.25;;;15.51;nan
77360;BME280;66426;51.454;7.266;2023-07-20T03:43:18;99927.72;;;15.52;nan
77360;BME280;66426;51.454;7.266;2023-07-20T03:44:19;99927.91;;;15.49;nan
77360;BME280;66426;51.454;7.266;2023-07-20T03:45:20;99921.34;;;15.65;nan
77360;BME280;66426;51.454;7.266;2023-07-20T03:46:20;99922.81;;;15.58;nan
77360;BME280;66426;51.454;7.266;2023-07-20T03:47:21;99914.00;;;15.54;nan
77360;BME280;66426;51.454;7.266;2023-07-20T03:48:22;99921.69;;;15.73;nan
77360;BME280;66426;51.454;7.266;2023-07-20T03:49:24;99921.34;;;15.65;nan
77360;BME280;66426;51.454;7.266;2023-07-20T03:50:25;99928.72;;;15.76;nan
77360;BME280;66426;51.454;7.266;2023-07-20T03:51:26;99918.75;;;15.63;nan
77360;BME280;66426;51.454;7.266;2023-07-20T03:52:27;99922.78;;;15.70;nan
77360;BME280;66426;51.454;7.266;2023-07-20T03:53:27;99919.50;;;15.65;nan
77360;BME280;66426;51.454;7.266;2023-07-20T03:54:28;99919.72;;;15.62;nan
77360;BME280;66426;51.454;7.266;2023-07-20T03:55:29;99926.34;;;15.71;nan
77360;BME280;66426;51.454;7.266;2023-07-20T03:56:30;99921.69;;;15.73;nan
77360;BME280;66426;51.454;7.266;2023-07-20T03:57:34;99918.13;;;15.84;nan
77360;BME280;66426;51.454;7.266;2023-07-20T03:58:35;99924.78;;;15.80;nan
77360;BME280;66426;51.454;7.266;2023-07-20T03:59:36;99922.94;;;15.67;nan
77360;BME280;66426;51.454;7.266;2023-07-20T04:00:37;99921.78;;;15.71;nan
77360;BME280;66426;51.454;7.266;2023-07-20T04:01:38;99922.84;;;15.69;nan
77360;BME280;66426;51.454;7.266;2023-07-20T04:02:40;99922.91;;;15.56;nan
77360;BME280;66426;51.454;7.266;2023-07-20T04:03:41;99919.72;;;15.62;nan
77360;BME280;66426;51.454;7.266;2023-07-20T04:04:43;99926.56;;;15.68;nan
77360;BME280;66426;51.454;7.266;2023-07-20T04:05:44;99928.06;;;15.72;nan
77360;BME280;66426;51.454;7.266;2023-07-20T04:06:45;99923.75;;;15.69;nan
77360;BME280;66426;51.454;7.266;2023-07-20T04:07:46;99928.88;;;15.61;nan
77360;BME280;66426;51.454;7.266;2023-07-20T04:08:47;99933.41;;;15.73;nan
77360;BME280;66426;51.454;7.266;2023-07-20T04:09:48;99934.03;;;15.77;nan
77360;BME280;66426;51.454;7.266;2023-07-20T04:10:48;99930.69;;;15.73;nan
77360;BME280;66426;51.454;7.266;2023-07-20T04:11:49;99938.88;;;15.61;nan
77360;BME280;66426;51.454;7.266;2023-07-20T04:12:50;99931.22;;;15.66;nan
77360;BME280;66426;51.454;7.266;2023-07-20T04:13:51;99933.41;;;15.73;nan
77360;BME280;66426;51.454;7.266;2023-07-20T04:14:51;99934.81;;;15.66;nan
77360;BME280;66426;51.454;7.266;2023-07-20T04:15:52;99930.59;;;15.62;nan
77360;BME280;66426;51.454;7.266;2023-07-20T04:16:53;99931.34;;;15.64;nan
77360;BME280;66426;51.454;7.266;2023-07-20T04:17:53;99935.13;;;15.74;nan
77360;BME280;66426;51.454;7.266;2023-07-20T04:18:56;99935.25;;;15.73;nan
77360;BME280;66426;51.454;7.266;2023-07-20T04:19:59;99931.88;;;15.69;nan
77360;BME280;66426;51.454;7.266;2023-07-20T04:20:59;99933.06;;;15.78;nan
77360;BME280;66426;51.454;7.266;2023-07-20T04:22:00;99928.97;;;15.60;nan
77360;BME280;66426;51.454;7.266;2023-07-20T04:23:01;99938.72;;;15.75;nan
77360;BME280;66426;51.454;7.266;2023-07-20T04:24:02;99936.16;;;15.85;nan
77360;BME280;66426;51.454;7.266;2023-07-20T04:25:03;99940.19;;;15.55;nan
77360;BME280;66426;51.454;7.266;2023-07-20T04:26:03;99934.72;;;15.68;nan
77360;BME280;66426;51.454;7.266;2023-07-20T04:27:04;99936.34;;;15.70;nan
77360;BME280;66426;51.454;7.266;2023-07-20T04:28:05;99938.88;;;15.61;nan
77360;BME280;66426;51.454;7.266;2023-07-20T04:29:09;99931.34;;;15.64;nan
77360;BME280;66426;51.454;7.266;2023-07-20T04:30:10;99940.03;;;15.69;nan
77360;BME280;66426;51.454;7.266;2023-07-20T04:31:12;99941.31;;;15.77;nan
77360;BME280;66426;51.454;7.266;2023-07-20T04:32:13;99950.78;;;15.71;nan
77360;BME280;66426;51.454;7.266;2023-07-20T04:33:13;99942.97;;;15.66;nan
77360;BME280;66426;51.454;7.266;2023-07-20T04:34:14;99951.09;;;15.66;nan
77360;BME280;66426;51.454;7.266;2023-07-20T04:35:18;99954.28;;;15.60;nan
77360;BME280;66426;51.454;7.266;2023-07-20T04:36:19;99951.06;;;15.79;nan
77360;BME280;66426;51.454;7.266;2023-07-20T04:37:20;99960.25;;;15.65;nan
77360;BME280;66426;51.454;7.266;2023-07-20T04:38:20;99960.13;;;15.67;nan
77360;BME280;66426;51.454;7.266;2023-07-20T04:39:21;99952.53;;;15.59;nan
77360;BME280;66426;51.454;7.266;2023-07-20T04:40:22;99950.88;;;15.45;nan
77360;BME280;66426;51.454;7.266;2023-07-20T04:41:22;99955.84;;;15.51;nan
77360;BME280;66426;51.454;7.266;2023-07-20T04:42:23;99958.72;;;15.61;nan
77360;BME280;66426;51.454;7.266;2023-07-20T04:43:24;99952.84;;;15.43;nan
77360;BME280;66426;51.454;7.266;2023-07-20T04:44:24;99956.13;;;15.60;nan
77360;BME280;66426;51.454;7.266;2023-07-20T04:45:25;99951.22;;;15.65;nan
77360;BME280;66426;51.454;7.266;2023-07-20T04:46:26;99951.59;;;15.60;nan
77360;BME280;66426;51.454;7.266;2023-07-20T04:47:26;99947.44;;;15.54;nan
77360;BME280;66426;51.454;7.266;2023-07-20T04:48:27;99955.59;;;15.54;nan
77360;BME280;66426;51.454;7.266;2023-07-20T04:49:28;99956.63;;;15.65;nan
77360;BME280;66426;51.454;7.266;2023-07-20T04:50:30;99952.22;;;15.64;nan
77360;BME280;66426;51.454;7.266;2023-07-20T04:51:30;99949.81;;;15.59;nan
77360;BME280;66426;51.454;7.266;2023-07-20T04:52:32;99955.69;;;15.66;nan
77360;BME280;66426;51.454;7.266;2023-07-20T04:53:33;99947.22;;;15.70;nan
77360;BME280;66426;51.454;7.266;2023-07-20T04:54:33;99954.13;;;15.74;nan
77360;BME280;66426;51.454;7.266;2023-07-20T04:55:34;99968.22;;;15.56;nan
77360;BME280;66426;51.454;7.266;2023-07-20T04:56:35;99965.78;;;15.64;nan
77360;BME280;66426;51.454;7.266;2023-07-20T04:57:35;99955.03;;;15.75;nan
77360;BME280;66426;51.454;7.266;2023-07-20T04:58:36;99960.66;;;15.72;nan
77360;BME280;66426;51.454;7.266;2023-07-20T04:59:37;99966.63;;;15.77;nan
77360;BME280;66426;51.454;7.266;2023-07-20T05:00:38;99963.16;;;15.62;nan
77360;BME280;66426;51.454;7.266;2023-07-20T05:01:39;99963.78;;;15.79;nan
77360;BME280;66426;51.454;7.266;2023-07-20T05:02:40;99963.69;;;15.67;nan
77360;BME280;66426;51.454;7.266;2023-07-20T05:03:41;99959.22;;;15.79;nan
77360;BME280;66426;51.454;7.266;2023-07-20T05:04:41;99961.19;;;15.77;nan
77360;BME280;66426;51.454;7.266;2023-07-20T05:05:43;99954.53;;;15.81;nan
77360;BME280;66426;51.454;7.266;2023-07-20T05:06:44;99961.09;;;15.79;nan
77360;BME280;66426;51.454;7.266;2023-07-20T05:07:45;99961.94;;;15.79;nan
77360;BME280;66426;51.454;7.266;2023-07-20T05:08:46;99962.00;;;15.90;nan
77360;BME280;66426;51.454;7.266;2023-07-20T05:09:46;99961.13;;;15.90;nan
77360;BME280;66426;51.454;7.266;2023-07-20T05:10:47;99963.50;;;15.94;nan
77360;BME280;66426;51.454;7.266;2023-07-20T05:11:48;99964.66;;;16.03;nan
77360;BME280;66426;51.454;7.266;2023-07-20T05:12:49;99965.69;;;16.13;nan
77360;BME280;66426;51.454;7.266;2023-07-20T05:13:49;99966.34;;;15.93;nan
77360;BME280;66426;51.454;7.266;2023-07-20T05:14:50;99959.16;;;15.92;nan
77360;BME280;66426;51.454;7.266;2023-07-20T05:15:51;99963.03;;;16.01;nan
77360;BME280;66426;51.454;7.266;2023-07-20T05:16:52;99969.59;;;16.09;nan
77360;BME280;66426;51.454;7.266;2023-07-20T05:17:53;99963.03;;;16.01;nan
77360;BME280;66426;51.454;7.266;2023-07-20T05:18:53;99966.09;;;15.96;nan
77360;BME280;66426;51.454;7.266;2023-07-20T05:19:54;99967.22;;;16.05;nan
77360;BME280;66426;51.454;7.266;2023-07-20T05:20:56;99973.06;;;16.11;nan
77360;BME280;66426;51.454;7.266;2023-07-20T05:21:57;99963.22;;;15.86;nan
77360;BME280;66426;51.454;7.266;2023-07-20T05:22:58;99968.94;;;15.70;nan
77360;BME280;66426;51.454;7.266;2023-07-20T05:23:58;99968.47;;;15.77;nan
77360;BME280;66426;51.454;7.266;2023-07-20T05:24:59;99970.94;;;15.80;nan
77360;BME280;66426;51.454;7.266;2023-07-20T05:26:00;99970.50;;;15.86;nan
77360;BME280;66426;51.454;7.266;2023-07-20T05:27:00;99975.75;;;15.76;nan
77360;BME280;66426;51.454;7.266;2023-07-20T05:28:01;99967.66;;;15.87;nan
77360;BME280;66426;51.454;7.266;2023-07-20T05:29:02;99970.78;;;15.94;nan
77360;BME280;66426;51.454;7.266;2023-07-20T05:30:03;99975.25;;;15.71;nan
77360;BME280;66426;51.454;7.266;2023-07-20T05:31:04;99972.22;;;15.63;nan
77360;BME280;66426;51.454;7.266;2023-07-20T05:32:06;99972.97;;;15.28;nan
77360;BME280;66426;51.454;7.266;2023-07-20T05:33:07;99977.84;;;15.60;nan
77360;BME280;66426;51.454;7.266;2023-07-20T05:34:07;99979.97;;;15.43;nan
77360;BME280;66426;51.454;7.266;2023-07-20T05:35:08;99981.63;;;15.33;nan
77360;BME280;66426;51.454;7.266;2023-07-20T05:36:13;99977.16;;;15.32;nan
77360;BME280;66426;51.454;7.266;2023-07-20T05:37:14;99974.78;;;15.64;nan